createdAt,value
2022-08-21T00:00:54.462Z,20.59
2022-08-21T00:01:54.549Z,20.59
2022-08-21T00:02:54.519Z,20.61
2022-08-21T00:03:54.457Z,20.61
2022-08-21T00:04:57.189Z,20.59
2022-08-21T00:05:54.418Z,20.58
2022-08-21T00:06:54.420Z,20.59
2022-08-21T00:07:54.410Z,20.58
2022-08-21T00:08:54.394Z,20.58
2022-08-21T00:09:54.402Z,20.59
2022-08-21T00:10:54.350Z,20.58
2022-08-21T00:11:54.353Z,20.58
2022-08-21T00:12:54.397Z,20.58
2022-08-21T00:13:54.312Z,20.58
2022-08-21T00:14:57.114Z,20.57
2022-08-21T00:15:54.299Z,20.57
2022-08-21T00:16:57.242Z,20.57
2022-08-21T00:17:54.286Z,20.55
2022-08-21T00:18:54.257Z,20.55
2022-08-21T00:19:54.246Z,20.55
2022-08-21T00:20:54.241Z,20.54
2022-08-21T00:21:54.231Z,20.54
2022-08-21T00:22:54.333Z,20.54
2022-08-21T00:23:54.203Z,20.54
2022-08-21T00:24:54.198Z,20.52
2022-08-21T00:25:54.191Z,20.51
2022-08-21T00:26:54.194Z,20.51
2022-08-21T00:27:54.189Z,20.51
2022-08-21T00:28:54.160Z,20.51
2022-08-21T00:29:54.151Z,20.48
2022-08-21T00:30:54.125Z,20.50
2022-08-21T00:31:54.119Z,20.48
2022-08-21T00:32:54.107Z,20.48
2022-08-21T00:33:54.343Z,20.47
2022-08-21T00:34:54.092Z,20.48
2022-08-21T00:35:54.075Z,20.43
2022-08-21T00:36:54.063Z,20.43
2022-08-21T00:37:54.082Z,20.42
2022-08-21T00:38:54.056Z,20.42
2022-08-21T00:39:54.063Z,20.41
2022-08-21T00:40:54.028Z,20.41
2022-08-21T00:41:54.016Z,20.41
2022-08-21T00:42:54.091Z,20.41
2022-08-21T00:43:53.996Z,20.39
2022-08-21T00:44:53.984Z,20.39
2022-08-21T00:45:53.969Z,20.39
2022-08-21T00:46:53.956Z,20.38
2022-08-21T00:47:53.953Z,20.35
2022-08-21T00:48:54.038Z,20.35
2022-08-21T00:49:53.936Z,20.32
2022-08-21T00:50:53.905Z,20.31
2022-08-21T00:51:53.901Z,20.31
2022-08-21T00:52:53.985Z,20.29
2022-08-21T00:53:53.881Z,20.28
2022-08-21T00:54:53.881Z,20.28
2022-08-21T00:55:53.890Z,20.28
2022-08-21T00:56:53.858Z,20.24
2022-08-21T00:57:53.850Z,20.23
2022-08-21T00:58:54.825Z,20.23
2022-08-21T00:59:53.820Z,20.21
2022-08-21T01:00:53.843Z,20.21
2022-08-21T01:01:53.805Z,20.20
2022-08-21T01:02:53.791Z,20.20
2022-08-21T01:03:53.792Z,20.18
2022-08-21T01:04:53.760Z,20.16
2022-08-21T01:05:53.760Z,20.14
2022-08-21T01:06:53.735Z,20.14
2022-08-21T01:07:53.730Z,20.11
2022-08-21T01:08:53.714Z,20.11
2022-08-21T01:09:53.707Z,20.11
2022-08-21T01:10:54.637Z,20.11
2022-08-21T01:11:53.684Z,20.11
2022-08-21T01:12:53.685Z,20.11
2022-08-21T01:13:53.656Z,20.11
2022-08-21T01:14:53.648Z,20.11
2022-08-21T01:15:53.651Z,20.10
2022-08-21T01:16:53.661Z,20.10
2022-08-21T01:17:53.645Z,20.10
2022-08-21T01:18:53.609Z,20.08
2022-08-21T01:19:53.613Z,20.08
2022-08-21T01:20:53.621Z,20.06
2022-08-21T01:21:53.591Z,20.10
2022-08-21T01:22:53.581Z,20.08
2022-08-21T01:23:53.554Z,20.08
2022-08-21T01:24:53.544Z,20.08
2022-08-21T01:25:53.531Z,20.08
2022-08-21T01:26:53.526Z,20.06
2022-08-21T01:27:53.539Z,20.06
2022-08-21T01:28:53.517Z,20.06
2022-08-21T01:29:53.488Z,20.06
2022-08-21T01:30:53.494Z,20.03
2022-08-21T01:31:53.478Z,20.03
2022-08-21T01:32:53.469Z,20.02
2022-08-21T01:33:53.446Z,20.02
2022-08-21T01:34:53.433Z,19.99
2022-08-21T01:35:53.433Z,20.01
2022-08-21T01:36:53.408Z,20.01
2022-08-21T01:37:53.425Z,19.99
2022-08-21T01:38:53.481Z,19.99
2022-08-21T01:39:53.454Z,19.98
2022-08-21T01:40:53.370Z,19.98
2022-08-21T01:41:53.371Z,19.98
2022-08-21T01:42:53.357Z,19.98
2022-08-21T01:43:53.346Z,19.98
2022-08-21T01:44:54.769Z,19.96
2022-08-21T01:45:53.314Z,19.95
2022-08-21T01:46:53.301Z,19.95
2022-08-21T01:47:53.302Z,19.95
2022-08-21T01:48:53.315Z,19.95
2022-08-21T01:49:53.276Z,19.94
2022-08-21T01:50:56.822Z,19.95
2022-08-21T01:51:53.291Z,19.95
2022-08-21T01:52:53.239Z,19.92
2022-08-21T01:53:53.260Z,19.94
2022-08-21T01:54:55.052Z,19.92
2022-08-21T01:55:53.219Z,19.91
2022-08-21T01:56:53.195Z,19.88
2022-08-21T01:57:53.198Z,19.91
2022-08-21T01:58:53.177Z,19.88
2022-08-21T01:59:53.203Z,19.87
2022-08-21T02:00:53.248Z,19.86
2022-08-21T02:01:53.148Z,19.83
2022-08-21T02:02:53.132Z,19.83
2022-08-21T02:03:53.131Z,19.78
2022-08-21T02:04:53.104Z,19.78
2022-08-21T02:05:53.114Z,19.76
2022-08-21T02:06:53.087Z,19.73
2022-08-21T02:07:53.085Z,19.71
2022-08-21T02:08:53.066Z,19.69
2022-08-21T02:09:53.058Z,19.68
2022-08-21T02:10:53.056Z,19.69
2022-08-21T02:11:53.038Z,19.69
2022-08-21T02:12:53.024Z,19.69
2022-08-21T02:13:53.012Z,19.69
2022-08-21T02:14:52.997Z,19.68
2022-08-21T02:15:53.030Z,19.65
2022-08-21T02:16:52.977Z,19.63
2022-08-21T02:17:52.977Z,19.63
2022-08-21T02:18:52.954Z,19.62
2022-08-21T02:19:52.956Z,19.61
2022-08-21T02:20:54.127Z,19.62
2022-08-21T02:21:52.934Z,19.59
2022-08-21T02:22:52.916Z,19.58
2022-08-21T02:23:52.900Z,19.56
2022-08-21T02:24:54.439Z,19.55
2022-08-21T02:25:52.876Z,19.55
2022-08-21T02:26:52.901Z,19.55
2022-08-21T02:27:52.860Z,19.54
2022-08-21T02:28:52.847Z,19.54
2022-08-21T02:29:52.839Z,19.51
2022-08-21T02:30:52.831Z,19.51
2022-08-21T02:31:52.815Z,19.50
2022-08-21T02:32:52.809Z,19.48
2022-08-21T02:33:52.785Z,19.50
2022-08-21T02:34:52.796Z,19.48
2022-08-21T02:35:52.772Z,19.47
2022-08-21T02:36:59.605Z,19.48
2022-08-21T02:37:52.767Z,19.47
2022-08-21T02:38:52.731Z,19.46
2022-08-21T02:39:52.755Z,19.43
2022-08-21T02:40:52.715Z,19.41
2022-08-21T02:41:52.701Z,19.40
2022-08-21T02:42:52.686Z,19.40
2022-08-21T02:43:52.692Z,19.40
2022-08-21T02:44:52.659Z,19.39
2022-08-21T02:45:52.658Z,19.39
2022-08-21T02:46:52.639Z,19.39
2022-08-21T02:47:52.634Z,19.37
2022-08-21T02:48:52.631Z,19.39
2022-08-21T02:49:52.619Z,19.37
2022-08-21T02:50:52.594Z,19.37
2022-08-21T02:51:52.598Z,19.37
2022-08-21T02:52:54.919Z,19.31
2022-08-21T02:53:52.582Z,19.31
2022-08-21T02:54:52.550Z,19.28
2022-08-21T02:55:52.548Z,19.28
2022-08-21T02:56:52.547Z,19.26
2022-08-21T02:57:52.519Z,19.26
2022-08-21T02:58:52.513Z,19.26
2022-08-21T02:59:52.515Z,19.25
2022-08-21T03:00:52.479Z,19.25
2022-08-21T03:01:52.522Z,19.23
2022-08-21T03:02:52.464Z,19.22
2022-08-21T03:03:52.455Z,19.23
2022-08-21T03:04:52.456Z,19.22
2022-08-21T03:05:52.433Z,19.23
2022-08-21T03:06:52.418Z,19.22
2022-08-21T03:07:52.406Z,19.22
2022-08-21T03:08:52.405Z,19.21
2022-08-21T03:09:55.943Z,19.19
2022-08-21T03:10:52.374Z,19.19
2022-08-21T03:11:52.369Z,19.16
2022-08-21T03:12:52.353Z,19.16
2022-08-21T03:13:52.346Z,19.14
2022-08-21T03:14:52.393Z,19.14
2022-08-21T03:15:52.330Z,19.14
2022-08-21T03:16:52.316Z,19.14
2022-08-21T03:17:52.299Z,19.14
2022-08-21T03:18:52.283Z,19.14
2022-08-21T03:19:52.275Z,19.13
2022-08-21T03:20:52.276Z,19.11
2022-08-21T03:21:52.252Z,19.11
2022-08-21T03:22:52.967Z,19.11
2022-08-21T03:23:52.232Z,19.11
2022-08-21T03:24:52.259Z,19.10
2022-08-21T03:25:52.228Z,19.10
2022-08-21T03:26:52.209Z,19.11
2022-08-21T03:27:55.926Z,19.10
2022-08-21T03:28:52.187Z,19.08
2022-08-21T03:29:52.174Z,19.07
2022-08-21T03:30:52.159Z,19.07
2022-08-21T03:31:52.152Z,19.06
2022-08-21T03:32:52.130Z,19.06
2022-08-21T03:33:52.125Z,19.06
2022-08-21T03:34:52.109Z,19.04
2022-08-21T03:35:52.117Z,19.04
2022-08-21T03:36:52.128Z,19.02
2022-08-21T03:37:52.086Z,19.00
2022-08-21T03:38:52.084Z,19.00
2022-08-21T03:39:52.124Z,18.99
2022-08-21T03:40:52.043Z,18.99
2022-08-21T03:41:52.050Z,18.99
2022-08-21T03:42:52.037Z,18.95
2022-08-21T03:43:52.022Z,18.95
2022-08-21T03:44:51.997Z,18.94
2022-08-21T03:45:52.728Z,18.94
2022-08-21T03:46:51.983Z,18.92
2022-08-21T03:47:51.981Z,18.91
2022-08-21T03:48:51.956Z,18.91
2022-08-21T03:49:51.960Z,18.90
2022-08-21T03:50:51.935Z,18.88
2022-08-21T03:51:56.159Z,18.87
2022-08-21T03:52:51.922Z,18.84
2022-08-21T03:53:51.906Z,18.85
2022-08-21T03:54:51.911Z,18.85
2022-08-21T03:55:51.884Z,18.84
2022-08-21T03:56:51.874Z,18.84
2022-08-21T03:57:51.870Z,18.84
2022-08-21T03:58:51.851Z,18.82
2022-08-21T03:59:51.860Z,18.84
2022-08-21T04:00:51.851Z,18.82
2022-08-21T04:01:51.838Z,18.81
2022-08-21T04:02:51.838Z,18.81
2022-08-21T04:03:51.800Z,18.80
2022-08-21T04:04:51.786Z,18.78
2022-08-21T04:05:51.785Z,18.76
2022-08-21T04:06:51.767Z,18.75
2022-08-21T04:07:51.764Z,18.72
2022-08-21T04:08:51.743Z,18.70
2022-08-21T04:09:51.739Z,18.70
2022-08-21T04:10:51.732Z,18.69
2022-08-21T04:11:51.712Z,18.70
2022-08-21T04:12:51.705Z,18.69
2022-08-21T04:13:51.689Z,18.69
2022-08-21T04:14:51.672Z,18.70
2022-08-21T04:15:51.673Z,18.70
2022-08-21T04:16:51.666Z,18.72
2022-08-21T04:17:51.651Z,18.73
2022-08-21T04:18:51.632Z,18.70
2022-08-21T04:19:53.790Z,18.72
2022-08-21T04:20:51.616Z,18.72
2022-08-21T04:21:52.634Z,18.72
2022-08-21T04:22:51.905Z,18.72
2022-08-21T04:23:51.577Z,18.72
2022-08-21T04:24:51.573Z,18.70
2022-08-21T04:25:51.563Z,18.72
2022-08-21T04:26:51.551Z,18.72
2022-08-21T04:27:51.549Z,18.72
2022-08-21T04:28:51.525Z,18.72
2022-08-21T04:29:51.516Z,18.72
2022-08-21T04:30:51.497Z,18.72
2022-08-21T04:31:51.503Z,18.72
2022-08-21T04:32:51.567Z,18.70
2022-08-21T04:33:51.472Z,18.72
2022-08-21T04:34:51.461Z,18.72
2022-08-21T04:35:51.452Z,18.70
2022-08-21T04:36:51.448Z,18.70
2022-08-21T04:37:51.443Z,18.69
2022-08-21T04:38:51.411Z,18.67
2022-08-21T04:39:53.551Z,18.67
2022-08-21T04:40:51.393Z,18.69
2022-08-21T04:41:51.384Z,18.70
2022-08-21T04:42:51.436Z,18.70
2022-08-21T04:43:51.375Z,18.70
2022-08-21T04:44:51.351Z,18.70
2022-08-21T04:45:51.351Z,18.70
2022-08-21T04:46:51.338Z,18.70
2022-08-21T04:47:52.507Z,18.72
2022-08-21T04:48:51.305Z,18.70
2022-08-21T04:49:51.314Z,18.70
2022-08-21T04:50:51.279Z,18.72
2022-08-21T04:51:51.280Z,18.70
2022-08-21T04:52:51.383Z,18.72
2022-08-21T04:53:51.256Z,18.73
2022-08-21T04:54:54.791Z,18.73
2022-08-21T04:55:51.237Z,18.73
2022-08-21T04:56:51.220Z,18.73
2022-08-21T04:57:51.211Z,18.73
2022-08-21T04:58:51.199Z,18.73
2022-08-21T04:59:51.232Z,18.75
2022-08-21T05:00:51.180Z,18.73
2022-08-21T05:01:51.246Z,18.73
2022-08-21T05:02:51.216Z,18.73
2022-08-21T05:03:51.164Z,18.73
2022-08-21T05:04:51.141Z,18.72
2022-08-21T05:05:51.135Z,18.73
2022-08-21T05:06:51.108Z,18.73
2022-08-21T05:07:51.104Z,18.72
2022-08-21T05:08:51.087Z,18.75
2022-08-21T05:09:51.087Z,18.76
2022-08-21T05:10:51.076Z,18.75
2022-08-21T05:11:51.061Z,18.76
2022-08-21T05:12:51.130Z,18.73
2022-08-21T05:13:56.969Z,18.72
2022-08-21T05:14:51.025Z,18.72
2022-08-21T05:15:51.027Z,18.70
2022-08-21T05:16:51.011Z,18.67
2022-08-21T05:17:55.488Z,18.70
2022-08-21T05:18:50.994Z,18.67
2022-08-21T05:19:50.965Z,18.69
2022-08-21T05:20:50.969Z,18.69
2022-08-21T05:21:50.951Z,18.69
2022-08-21T05:22:51.234Z,18.67
2022-08-21T05:23:50.943Z,18.66
2022-08-21T05:24:50.947Z,18.66
2022-08-21T05:25:50.905Z,18.63
2022-08-21T05:26:50.896Z,18.62
2022-08-21T05:27:52.282Z,18.65
2022-08-21T05:28:50.884Z,18.65
2022-08-21T05:29:50.860Z,18.63
2022-08-21T05:30:50.864Z,18.65
2022-08-21T05:31:50.838Z,18.66
2022-08-21T05:32:50.930Z,18.67
2022-08-21T05:33:50.831Z,18.66
2022-08-21T05:34:50.814Z,18.65
2022-08-21T05:35:50.817Z,18.66
2022-08-21T05:36:50.781Z,18.67
2022-08-21T05:37:50.774Z,18.66
2022-08-21T05:38:50.771Z,18.67
2022-08-21T05:40:20.257Z,18.67
2022-08-21T05:40:50.848Z,18.67
2022-08-21T05:41:50.738Z,18.67
2022-08-21T05:42:54.286Z,18.70
2022-08-21T05:43:50.707Z,18.70
2022-08-21T05:44:50.696Z,18.73
2022-08-21T05:45:50.700Z,18.75
2022-08-21T05:46:50.681Z,18.78
2022-08-21T05:47:50.672Z,18.80
2022-08-21T05:48:50.662Z,18.78
2022-08-21T05:49:50.640Z,18.73
2022-08-21T05:50:50.640Z,18.73
2022-08-21T05:51:50.656Z,18.72
2022-08-21T05:52:50.613Z,18.75
2022-08-21T05:53:50.615Z,18.76
2022-08-21T05:54:50.590Z,18.80
2022-08-21T05:55:50.575Z,18.82
2022-08-21T05:56:50.572Z,18.85
2022-08-21T05:57:50.560Z,18.85
2022-08-21T05:58:50.547Z,18.84
2022-08-21T05:59:50.535Z,18.82
2022-08-21T06:00:50.521Z,18.81
2022-08-21T06:01:50.580Z,18.82
2022-08-21T06:02:50.537Z,18.82
2022-08-21T06:03:50.491Z,18.84
2022-08-21T06:04:50.480Z,18.87
2022-08-21T06:05:50.464Z,18.90
2022-08-21T06:06:50.472Z,18.91
2022-08-21T06:07:50.458Z,18.95
2022-08-21T06:08:50.445Z,18.98
2022-08-21T06:09:50.421Z,18.98
2022-08-21T06:10:50.451Z,19.00
2022-08-21T06:11:50.406Z,19.02
2022-08-21T06:12:50.392Z,19.06
2022-08-21T06:13:50.398Z,19.04
2022-08-21T06:14:50.375Z,19.04
2022-08-21T06:15:50.372Z,19.02
2022-08-21T06:16:50.368Z,18.99
2022-08-21T06:17:50.343Z,19.00
2022-08-21T06:18:50.336Z,19.00
2022-08-21T06:19:50.317Z,19.02
2022-08-21T06:20:50.312Z,19.02
2022-08-21T06:21:50.297Z,18.98
2022-08-21T06:22:50.299Z,18.98
2022-08-21T06:23:50.282Z,19.00
2022-08-21T06:24:50.271Z,19.02
2022-08-21T06:25:50.245Z,19.06
2022-08-21T06:26:50.241Z,19.07
2022-08-21T06:27:50.230Z,19.04
2022-08-21T06:28:50.211Z,19.06
2022-08-21T06:29:50.212Z,19.07
2022-08-21T06:30:50.206Z,19.08
2022-08-21T06:31:50.185Z,19.07
2022-08-21T06:32:50.170Z,19.08
2022-08-21T06:33:50.164Z,19.08
2022-08-21T06:34:50.162Z,19.06
2022-08-21T06:35:50.141Z,19.04
2022-08-21T06:36:50.129Z,19.06
2022-08-21T06:37:50.112Z,19.07
2022-08-21T06:38:51.061Z,19.10
2022-08-21T06:39:50.129Z,19.11
2022-08-21T06:40:50.100Z,19.13
2022-08-21T06:41:50.072Z,19.13
2022-08-21T06:42:50.068Z,19.18
2022-08-21T06:43:50.053Z,19.21
2022-08-21T06:44:50.047Z,19.23
2022-08-21T06:45:50.065Z,19.25
2022-08-21T06:46:50.025Z,19.28
2022-08-21T06:47:50.005Z,19.28
2022-08-21T06:48:50.000Z,19.28
2022-08-21T06:49:49.984Z,19.25
2022-08-21T06:50:49.979Z,19.23
2022-08-21T06:51:49.981Z,19.26
2022-08-21T06:52:49.948Z,19.28
2022-08-21T06:53:49.938Z,19.29
2022-08-21T06:54:49.926Z,19.31
2022-08-21T06:55:49.921Z,19.32
2022-08-21T06:56:49.922Z,19.36
2022-08-21T06:57:52.580Z,19.37
2022-08-21T06:58:49.895Z,19.36
2022-08-21T06:59:49.870Z,19.37
2022-08-21T07:00:49.858Z,19.39
2022-08-21T07:01:49.903Z,19.40
2022-08-21T07:02:49.843Z,19.37
2022-08-21T07:03:49.858Z,19.37
2022-08-21T07:04:49.818Z,19.37
2022-08-21T07:05:49.827Z,19.37
2022-08-21T07:06:49.800Z,19.36
2022-08-21T07:07:49.779Z,19.36
2022-08-21T07:08:49.795Z,19.37
2022-08-21T07:09:49.760Z,19.40
2022-08-21T07:10:49.751Z,19.43
2022-08-21T07:11:49.735Z,19.47
2022-08-21T07:12:49.741Z,19.50
2022-08-21T07:13:49.728Z,19.48
2022-08-21T07:14:49.724Z,19.47
2022-08-21T07:15:49.689Z,19.51
2022-08-21T07:16:49.709Z,19.56
2022-08-21T07:17:49.681Z,19.59
2022-08-21T07:18:49.667Z,19.62
2022-08-21T07:19:49.662Z,19.65
2022-08-21T07:20:49.652Z,19.66
2022-08-21T07:21:49.630Z,19.73
2022-08-21T07:22:49.617Z,19.76
2022-08-21T07:23:49.601Z,19.76
2022-08-21T07:24:49.600Z,19.76
2022-08-21T07:25:49.614Z,19.80
2022-08-21T07:26:49.586Z,19.81
2022-08-21T07:27:49.563Z,19.86
2022-08-21T07:28:49.549Z,19.88
2022-08-21T07:29:49.540Z,19.95
2022-08-21T07:30:49.542Z,19.96
2022-08-21T07:31:49.550Z,20.01
2022-08-21T07:32:49.516Z,20.05
2022-08-21T07:33:49.509Z,20.10
2022-08-21T07:34:49.490Z,20.14
2022-08-21T07:35:49.471Z,20.18
2022-08-21T07:36:49.466Z,20.20
2022-08-21T07:37:49.475Z,20.24
2022-08-21T07:38:52.764Z,20.28
2022-08-21T07:39:49.450Z,20.35
2022-08-21T07:40:49.428Z,20.38
2022-08-21T07:41:49.412Z,20.41
2022-08-21T07:42:49.404Z,20.48
2022-08-21T07:43:49.379Z,20.51
2022-08-21T07:44:50.868Z,20.55
2022-08-21T07:45:49.369Z,20.57
2022-08-21T07:46:49.358Z,20.62
2022-08-21T07:47:51.904Z,20.66
2022-08-21T07:48:49.334Z,20.67
2022-08-21T07:49:49.335Z,20.70
2022-08-21T07:50:49.315Z,20.72
2022-08-21T07:51:49.299Z,20.74
2022-08-21T07:52:49.314Z,20.73
2022-08-21T07:53:49.277Z,20.72
2022-08-21T07:54:49.275Z,20.70
2022-08-21T07:55:49.269Z,20.74
2022-08-21T07:56:49.246Z,20.74
2022-08-21T07:57:49.261Z,20.74
2022-08-21T07:58:49.222Z,20.77
2022-08-21T07:59:49.208Z,20.77
2022-08-21T08:00:49.219Z,20.79
2022-08-21T08:01:49.184Z,20.82
2022-08-21T08:02:49.182Z,20.85
2022-08-21T08:03:49.162Z,20.89
2022-08-21T08:04:50.521Z,20.92
2022-08-21T08:05:49.143Z,20.94
2022-08-21T08:06:49.172Z,20.92
2022-08-21T08:07:49.112Z,20.85
2022-08-21T08:08:49.106Z,20.84
2022-08-21T08:09:49.095Z,20.85
2022-08-21T08:10:49.094Z,20.88
2022-08-21T08:11:49.076Z,20.91
2022-08-21T08:12:49.076Z,20.92
2022-08-21T08:13:49.077Z,20.95
2022-08-21T08:14:49.042Z,20.98
2022-08-21T08:15:49.029Z,21.04
2022-08-21T08:16:49.027Z,21.13
2022-08-21T08:17:49.019Z,21.19
2022-08-21T08:18:49.010Z,21.25
2022-08-21T08:19:48.987Z,21.29
2022-08-21T08:20:48.980Z,21.32
2022-08-21T08:21:48.962Z,21.32
2022-08-21T08:22:50.395Z,21.34
2022-08-21T08:23:48.978Z,21.34
2022-08-21T08:24:48.936Z,21.35
2022-08-21T08:25:48.918Z,21.35
2022-08-21T08:26:53.595Z,21.38
2022-08-21T08:27:48.922Z,21.40
2022-08-21T08:28:48.907Z,21.43
2022-08-21T08:29:48.882Z,21.46
2022-08-21T08:30:48.863Z,21.50
2022-08-21T08:31:48.890Z,21.50
2022-08-21T08:32:48.867Z,21.53
2022-08-21T08:33:48.846Z,21.56
2022-08-21T08:34:48.830Z,21.61
2022-08-21T08:35:48.806Z,21.64
2022-08-21T08:36:48.801Z,21.65
2022-08-21T08:37:52.315Z,21.68
2022-08-21T08:38:48.815Z,21.71
2022-08-21T08:39:48.815Z,21.72
2022-08-21T08:40:48.757Z,21.75
2022-08-21T08:41:48.746Z,21.77
2022-08-21T08:42:48.755Z,21.74
2022-08-21T08:43:48.726Z,21.75
2022-08-21T08:44:48.733Z,21.77
2022-08-21T08:45:48.697Z,21.80
2022-08-21T08:46:48.690Z,21.79
2022-08-21T08:47:48.760Z,21.82
2022-08-21T08:48:52.891Z,21.82
2022-08-21T08:49:48.670Z,21.82
2022-08-21T08:50:48.651Z,21.83
2022-08-21T08:51:48.638Z,21.84
2022-08-21T08:52:48.629Z,21.88
2022-08-21T08:53:48.613Z,21.92
2022-08-21T08:54:48.613Z,21.99
2022-08-21T08:55:48.612Z,22.03
2022-08-21T08:56:48.582Z,22.09
2022-08-21T08:57:49.881Z,22.12
2022-08-21T08:58:48.567Z,22.15
2022-08-21T08:59:48.556Z,22.15
2022-08-21T09:00:48.586Z,22.17
2022-08-21T09:01:48.573Z,22.17
2022-08-21T09:02:48.520Z,22.12
2022-08-21T09:03:48.506Z,22.12
2022-08-21T09:04:48.497Z,22.12
2022-08-21T09:05:48.493Z,22.14
2022-08-21T09:06:48.486Z,22.15
2022-08-21T09:07:48.463Z,22.17
2022-08-21T09:08:48.457Z,22.20
2022-08-21T09:09:48.437Z,22.22
2022-08-21T09:10:48.437Z,22.27
2022-08-21T09:11:48.429Z,22.30
2022-08-21T09:12:48.410Z,22.31
2022-08-21T09:13:48.421Z,22.35
2022-08-21T09:14:48.390Z,22.36
2022-08-21T09:15:48.369Z,22.37
2022-08-21T09:16:48.381Z,22.39
2022-08-21T09:17:48.364Z,22.39
2022-08-21T09:18:48.344Z,22.28
2022-08-21T09:19:48.326Z,22.21
2022-08-21T09:20:48.325Z,22.17
2022-08-21T09:21:48.311Z,22.14
2022-08-21T09:22:48.299Z,22.15
2022-08-21T09:23:48.297Z,22.18
2022-08-21T09:24:51.837Z,22.18
2022-08-21T09:25:48.265Z,22.20
2022-08-21T09:26:48.268Z,22.22
2022-08-21T09:27:48.236Z,22.25
2022-08-21T09:28:48.246Z,22.25
2022-08-21T09:29:48.220Z,22.27
2022-08-21T09:30:48.214Z,22.31
2022-08-21T09:31:48.208Z,22.33
2022-08-21T09:32:48.200Z,22.37
2022-08-21T09:33:48.191Z,22.42
2022-08-21T09:34:48.175Z,22.46
2022-08-21T09:35:48.157Z,22.51
2022-08-21T09:36:48.143Z,22.54
2022-08-21T09:37:48.139Z,22.57
2022-08-21T09:38:48.129Z,22.62
2022-08-21T09:39:48.930Z,22.64
2022-08-21T09:40:48.103Z,22.68
2022-08-21T09:41:48.097Z,22.72
2022-08-21T09:42:48.078Z,22.73
2022-08-21T09:43:48.068Z,22.76
2022-08-21T09:44:48.066Z,22.73
2022-08-21T09:45:48.051Z,22.70
2022-08-21T09:46:48.040Z,22.70
2022-08-21T09:47:48.027Z,22.70
2022-08-21T09:48:48.008Z,22.72
2022-08-21T09:49:48.018Z,22.75
2022-08-21T09:50:47.998Z,22.76
2022-08-21T09:51:47.991Z,22.77
2022-08-21T09:52:47.964Z,22.80
2022-08-21T09:53:47.965Z,22.82
2022-08-21T09:54:47.951Z,22.86
2022-08-21T09:55:47.972Z,22.90
2022-08-21T09:56:47.926Z,22.95
2022-08-21T09:57:50.478Z,22.98
2022-08-21T09:58:47.905Z,23.01
2022-08-21T09:59:47.899Z,22.98
2022-08-21T10:00:47.912Z,23.02
2022-08-21T10:01:47.887Z,23.02
2022-08-21T10:02:47.886Z,23.02
2022-08-21T10:03:47.851Z,22.97
2022-08-21T10:04:47.840Z,22.91
2022-08-21T10:05:47.850Z,22.92
2022-08-21T10:06:47.819Z,22.94
2022-08-21T10:07:47.823Z,23.01
2022-08-21T10:08:47.796Z,23.04
2022-08-21T10:09:47.797Z,23.07
2022-08-21T10:10:47.774Z,23.09
2022-08-21T10:11:47.771Z,23.13
2022-08-21T10:12:47.765Z,23.17
2022-08-21T10:13:47.824Z,23.22
2022-08-21T10:14:47.728Z,23.28
2022-08-21T10:15:47.723Z,23.33
2022-08-21T10:16:47.720Z,23.36
2022-08-21T10:17:47.716Z,23.36
2022-08-21T10:18:47.699Z,23.28
2022-08-21T10:19:47.680Z,23.23
2022-08-21T10:20:47.663Z,23.27
2022-08-21T10:21:49.170Z,23.19
2022-08-21T10:22:47.656Z,23.19
2022-08-21T10:23:47.666Z,23.17
2022-08-21T10:24:47.623Z,23.19
2022-08-21T10:25:56.386Z,23.22
2022-08-21T10:26:47.614Z,23.28
2022-08-21T10:27:47.597Z,23.32
2022-08-21T10:28:47.593Z,23.38
2022-08-21T10:29:47.595Z,23.40
2022-08-21T10:30:47.552Z,23.40
2022-08-21T10:31:47.548Z,23.42
2022-08-21T10:32:47.532Z,23.40
2022-08-21T10:33:47.541Z,23.40
2022-08-21T10:34:47.523Z,23.39
2022-08-21T10:35:47.518Z,23.43
2022-08-21T10:36:47.495Z,23.46
2022-08-21T10:37:47.503Z,23.38
2022-08-21T10:38:58.660Z,23.33
2022-08-21T10:39:47.526Z,23.33
2022-08-21T10:40:47.444Z,23.38
2022-08-21T10:41:47.429Z,23.42
2022-08-21T10:42:47.437Z,23.47
2022-08-21T10:43:47.422Z,23.50
2022-08-21T10:44:47.417Z,23.53
2022-08-21T10:45:47.387Z,23.54
2022-08-21T10:46:47.386Z,23.60
2022-08-21T10:47:47.361Z,23.66
2022-08-21T10:48:47.384Z,23.70
2022-08-21T10:49:47.376Z,23.78
2022-08-21T10:50:47.349Z,23.84
2022-08-21T10:51:47.321Z,23.93
2022-08-21T10:52:47.319Z,23.95
2022-08-21T10:53:47.386Z,23.85
2022-08-21T10:54:47.299Z,23.83
2022-08-21T10:55:47.297Z,23.83
2022-08-21T10:56:47.275Z,23.83
2022-08-21T10:57:47.262Z,23.79
2022-08-21T10:58:47.249Z,23.75
2022-08-21T10:59:47.240Z,23.73
2022-08-21T11:00:47.300Z,23.78
2022-08-21T11:01:47.234Z,23.85
2022-08-21T11:02:47.216Z,23.94
2022-08-21T11:03:47.199Z,24.03
2022-08-21T11:04:49.573Z,24.15
2022-08-21T11:05:50.644Z,24.24
2022-08-21T11:06:47.179Z,24.34
2022-08-21T11:07:47.153Z,24.43
2022-08-21T11:08:47.771Z,24.50
2022-08-21T11:09:47.133Z,24.58
2022-08-21T11:10:51.230Z,24.58
2022-08-21T11:11:49.119Z,24.61
2022-08-21T11:12:47.105Z,24.65
2022-08-21T11:13:47.090Z,24.68
2022-08-21T11:14:50.134Z,24.69
2022-08-21T11:15:47.067Z,24.78
2022-08-21T11:16:47.073Z,24.80
2022-08-21T11:17:47.053Z,24.73
2022-08-21T11:18:47.042Z,24.69
2022-08-21T11:19:47.037Z,24.76
2022-08-21T11:20:47.012Z,24.80
2022-08-21T11:21:47.020Z,24.81
2022-08-21T11:22:50.203Z,24.64
2022-08-21T11:23:46.989Z,24.67
2022-08-21T11:24:47.064Z,24.76
2022-08-21T11:25:46.971Z,24.87
2022-08-21T11:26:46.990Z,24.96
2022-08-21T11:27:46.935Z,25.09
2022-08-21T11:28:46.928Z,25.15
2022-08-21T11:29:46.906Z,25.23
2022-08-21T11:30:46.904Z,25.32
2022-08-21T11:31:46.904Z,25.38
2022-08-21T11:32:46.893Z,25.42
2022-08-21T11:33:46.871Z,25.43
2022-08-21T11:34:46.967Z,25.45
2022-08-21T11:35:46.847Z,25.50
2022-08-21T11:36:47.494Z,25.52
2022-08-21T11:37:46.839Z,25.58
2022-08-21T11:38:46.829Z,25.60
2022-08-21T11:39:46.884Z,25.61
2022-08-21T11:40:46.813Z,25.69
2022-08-21T11:41:46.785Z,25.72
2022-08-21T11:42:46.788Z,25.75
2022-08-21T11:43:46.797Z,25.79
2022-08-21T11:44:46.786Z,25.79
2022-08-21T11:45:46.737Z,25.87
2022-08-21T11:46:46.735Z,25.83
2022-08-21T11:47:50.907Z,25.83
2022-08-21T11:48:46.754Z,25.88
2022-08-21T11:49:46.716Z,25.76
2022-08-21T11:50:46.695Z,25.72
2022-08-21T11:51:46.676Z,25.73
2022-08-21T11:52:46.677Z,25.70
2022-08-21T11:53:49.821Z,25.72
2022-08-21T11:54:46.673Z,25.80
2022-08-21T11:55:46.653Z,25.75
2022-08-21T11:56:46.629Z,25.85
2022-08-21T11:57:46.608Z,25.94
2022-08-21T11:58:46.616Z,25.97
2022-08-21T11:59:46.623Z,26.09
2022-08-21T12:00:46.599Z,26.29
2022-08-21T12:01:46.674Z,26.44
2022-08-21T12:02:46.578Z,26.60
2022-08-21T12:03:46.548Z,26.75
2022-08-21T12:04:47.036Z,26.89
2022-08-21T12:05:46.551Z,26.91
2022-08-21T12:06:46.545Z,26.88
2022-08-21T12:07:46.513Z,26.87
2022-08-21T12:08:46.493Z,26.91
2022-08-21T12:09:46.487Z,27.03
2022-08-21T12:10:46.493Z,27.21
2022-08-21T12:11:46.473Z,27.43
2022-08-21T12:12:46.468Z,27.69
2022-08-21T12:13:46.443Z,27.63
2022-08-21T12:14:46.437Z,27.60
2022-08-21T12:15:46.417Z,27.85
2022-08-21T12:16:46.454Z,28.09
2022-08-21T12:17:46.409Z,28.29
2022-08-21T12:18:46.400Z,28.61
2022-08-21T12:19:46.381Z,28.88
2022-08-21T12:20:50.483Z,29.12
2022-08-21T12:21:46.352Z,29.34
2022-08-21T12:22:46.361Z,29.60
2022-08-21T12:23:46.347Z,29.86
2022-08-21T12:24:46.334Z,30.02
2022-08-21T12:25:46.363Z,30.22
2022-08-21T12:26:46.301Z,30.39
2022-08-21T12:27:46.305Z,30.53
2022-08-21T12:28:46.304Z,30.73
2022-08-21T12:29:46.269Z,30.91
2022-08-21T12:30:46.296Z,31.04
2022-08-21T12:31:46.252Z,31.13
2022-08-21T12:32:46.246Z,31.31
2022-08-21T12:33:46.255Z,31.54
2022-08-21T12:34:46.221Z,31.73
2022-08-21T12:35:46.218Z,31.91
2022-08-21T12:36:46.214Z,31.99
2022-08-21T12:37:46.192Z,32.03
2022-08-21T12:38:46.199Z,31.81
2022-08-21T12:39:46.233Z,31.57
2022-08-21T12:40:46.193Z,31.41
2022-08-21T12:41:46.144Z,31.47
2022-08-21T12:43:00.588Z,31.68
2022-08-21T12:43:46.133Z,31.73
2022-08-21T12:44:46.115Z,31.32
2022-08-21T12:45:46.107Z,31.36
2022-08-21T12:46:46.100Z,31.46
2022-08-21T12:47:46.079Z,31.54
2022-08-21T12:48:46.102Z,31.75
2022-08-21T12:49:46.055Z,31.70
2022-08-21T12:50:48.978Z,31.47
2022-08-21T12:51:46.042Z,31.56
2022-08-21T12:52:46.038Z,31.72